createdAt,value
2023-02-02T00:01:21.752Z,4.70
2023-02-02T00:03:52.630Z,4.40
2023-02-02T00:06:22.514Z,4.43
2023-02-02T00:08:50.397Z,4.05
2023-02-02T00:11:19.218Z,4.28
2023-02-02T00:13:47.098Z,4.93
2023-02-02T00:16:26.753Z,4.22
2023-02-02T00:18:56.384Z,3.40
2023-02-02T00:21:24.643Z,3.20
2023-02-02T00:23:52.659Z,3.38
2023-02-02T00:26:21.429Z,3.28
2023-02-02T00:28:49.107Z,3.38
2023-02-02T00:31:17.070Z,3.13
2023-02-02T00:33:46.095Z,3.03
2023-02-02T00:36:14.195Z,3.65
2023-02-02T00:38:41.791Z,3.92
2023-02-02T00:41:09.866Z,4.00
2023-02-02T00:43:37.747Z,2.55
2023-02-02T00:46:06.416Z,2.97
2023-02-02T00:48:34.033Z,3.47
2023-02-02T00:51:02.344Z,3.47
2023-02-02T00:53:30.678Z,3.25
2023-02-02T00:55:58.330Z,3.45
2023-02-02T00:58:26.318Z,2.95
2023-02-02T01:00:53.995Z,3.05
2023-02-02T01:03:21.746Z,3.22
2023-02-02T01:05:51.529Z,3.15
2023-02-02T01:08:19.303Z,2.83
2023-02-02T01:10:47.101Z,4.53
2023-02-02T01:13:16.132Z,3.70
2023-02-02T01:15:44.147Z,3.30
2023-02-02T01:18:11.650Z,3.80
2023-02-02T01:20:39.170Z,3.25
2023-02-02T01:23:07.024Z,2.40
2023-02-02T01:25:38.522Z,3.25
2023-02-02T01:28:06.466Z,3.13
2023-02-02T01:30:33.899Z,3.25
2023-02-02T01:33:01.284Z,2.45
2023-02-02T01:35:28.864Z,2.85
2023-02-02T01:37:56.612Z,2.72
2023-02-02T01:40:24.062Z,2.40
2023-02-02T01:42:51.481Z,3.20
2023-02-02T01:45:29.199Z,2.35
2023-02-02T01:47:59.937Z,3.13
2023-02-02T01:50:34.504Z,2.63
2023-02-02T01:53:04.825Z,2.70
2023-02-02T01:55:34.663Z,4.05
2023-02-02T01:58:09.698Z,3.05
2023-02-02T02:00:39.636Z,3.00
2023-02-02T02:03:12.294Z,2.67
2023-02-02T02:06:08.223Z,3.00
2023-02-02T02:08:52.176Z,3.35
2023-02-02T02:11:21.640Z,3.05
2023-02-02T02:14:09.471Z,2.60
2023-02-02T02:17:03.385Z,3.15
2023-02-02T02:19:37.031Z,2.72
2023-02-02T02:22:35.468Z,2.97
2023-02-02T02:25:51.412Z,3.08
2023-02-02T02:28:47.799Z,4.03
2023-02-02T02:31:15.626Z,3.90
2023-02-02T02:34:05.375Z,3.65
2023-02-02T02:36:49.695Z,3.20
2023-02-02T02:39:21.136Z,2.67
2023-02-02T02:41:52.619Z,3.55
2023-02-02T02:44:21.924Z,3.05
2023-02-02T02:46:50.900Z,3.25
2023-02-02T02:49:19.126Z,2.63
2023-02-02T02:51:49.815Z,3.17
2023-02-02T02:54:33.297Z,3.55
2023-02-02T02:57:10.569Z,3.22
2023-02-02T02:59:53.354Z,2.97
2023-02-02T03:02:48.973Z,3.25
2023-02-02T03:05:35.093Z,2.80
2023-02-02T03:08:25.517Z,3.55
2023-02-02T03:10:55.854Z,2.92
2023-02-02T03:13:24.517Z,2.88
2023-02-02T03:15:52.651Z,3.60
2023-02-02T03:18:24.044Z,3.72
2023-02-02T03:20:51.486Z,4.50
2023-02-02T03:23:19.510Z,2.90
2023-02-02T03:25:47.713Z,2.97
2023-02-02T03:28:17.521Z,2.97
2023-02-02T03:30:46.319Z,4.07
2023-02-02T03:33:15.689Z,3.00
2023-02-02T03:35:43.313Z,3.08
2023-02-02T03:38:12.597Z,3.40
2023-02-02T03:40:40.915Z,3.10
2023-02-02T03:43:08.858Z,3.45
2023-02-02T03:45:37.346Z,2.92
2023-02-02T03:48:05.858Z,3.47
2023-02-02T03:50:34.110Z,3.58
2023-02-02T03:53:01.902Z,3.03
2023-02-02T03:55:29.518Z,3.13
2023-02-02T03:57:57.343Z,2.78
2023-02-02T04:00:25.231Z,2.65
2023-02-02T04:02:54.045Z,3.38
2023-02-02T04:05:22.099Z,2.55
2023-02-02T04:07:50.112Z,2.65
2023-02-02T04:10:18.597Z,2.67
2023-02-02T04:12:46.658Z,3.47
2023-02-02T04:15:14.525Z,3.63
2023-02-02T04:17:42.233Z,2.58
2023-02-02T04:20:10.848Z,2.40
2023-02-02T04:22:38.417Z,2.50
2023-02-02T04:25:06.488Z,2.65
2023-02-02T04:27:34.405Z,2.85
2023-02-02T04:30:02.234Z,2.80
2023-02-02T04:32:30.765Z,2.50
2023-02-02T04:34:58.250Z,3.22
2023-02-02T04:37:25.774Z,3.25
2023-02-02T04:39:55.337Z,3.53
2023-02-02T04:42:22.892Z,2.90
2023-02-02T04:44:50.365Z,2.92
2023-02-02T04:47:18.092Z,2.92
2023-02-02T04:49:45.679Z,3.10
2023-02-02T04:52:13.188Z,3.80
2023-02-02T04:54:40.768Z,2.63
2023-02-02T04:57:08.597Z,2.90
2023-02-02T04:59:36.241Z,3.30
2023-02-02T05:02:03.885Z,3.05
2023-02-02T05:04:31.551Z,2.83
2023-02-02T05:06:59.181Z,3.00
2023-02-02T05:09:26.976Z,3.10
2023-02-02T05:11:54.726Z,2.58
2023-02-02T05:14:22.485Z,3.72
2023-02-02T05:16:50.238Z,2.42
2023-02-02T05:19:18.008Z,3.03
2023-02-02T05:21:49.992Z,2.35
2023-02-02T05:24:18.493Z,3.47
2023-02-02T05:26:46.328Z,3.10
2023-02-02T05:29:14.038Z,3.47
2023-02-02T05:31:41.652Z,3.95
2023-02-02T05:34:11.523Z,2.30
2023-02-02T05:36:38.994Z,3.03
2023-02-02T05:39:06.471Z,2.42
2023-02-02T05:41:34.033Z,2.92
2023-02-02T05:44:02.155Z,2.60
2023-02-02T05:46:30.270Z,2.45
2023-02-02T05:48:59.290Z,2.80
2023-02-02T05:51:33.417Z,2.50
2023-02-02T05:54:01.170Z,2.83
2023-02-02T05:56:28.611Z,3.42
2023-02-02T05:58:55.996Z,2.63
2023-02-02T06:01:23.673Z,2.53
2023-02-02T06:03:51.418Z,2.70
2023-02-02T06:06:19.061Z,2.80
2023-02-02T06:08:46.620Z,2.30
2023-02-02T06:11:16.966Z,2.70
2023-02-02T06:13:46.060Z,2.95
2023-02-02T06:16:13.850Z,2.00
2023-02-02T06:18:41.459Z,2.78
2023-02-02T06:21:10.108Z,2.60
2023-02-02T06:23:38.552Z,3.05
2023-02-02T06:26:08.184Z,2.53
2023-02-02T06:28:35.712Z,2.00
2023-02-02T06:31:08.113Z,2.33
2023-02-02T06:33:35.967Z,2.22
2023-02-02T06:36:05.720Z,2.58
2023-02-02T06:38:33.229Z,2.35
2023-02-02T06:41:01.743Z,1.90
2023-02-02T06:43:30.395Z,2.00
2023-02-02T06:45:58.720Z,2.80
2023-02-02T06:48:27.512Z,2.28
2023-02-02T06:51:00.125Z,1.70
2023-02-02T06:53:27.814Z,2.03
2023-02-02T06:55:57.724Z,2.35
2023-02-02T06:58:25.475Z,2.22
2023-02-02T07:00:53.570Z,2.45
2023-02-02T07:03:22.164Z,1.92
2023-02-02T07:05:50.119Z,2.80
2023-02-02T07:08:18.031Z,1.88
2023-02-02T07:11:14.737Z,2.15
2023-02-02T07:13:33.490Z,2.10
2023-02-02T07:16:02.592Z,2.85
2023-02-02T07:18:30.456Z,1.75
2023-02-02T07:21:01.531Z,2.00
2023-02-02T07:23:30.433Z,2.20
2023-02-02T07:26:01.851Z,2.13
2023-02-02T07:28:30.005Z,2.05
2023-02-02T07:30:57.959Z,2.22
2023-02-02T07:33:25.709Z,2.22
2023-02-02T07:35:53.542Z,2.33
2023-02-02T07:38:21.025Z,1.83
2023-02-02T07:40:48.507Z,2.35
2023-02-02T07:43:15.962Z,2.67
2023-02-02T07:45:43.370Z,2.35
2023-02-02T07:48:10.814Z,2.35
2023-02-02T07:50:38.196Z,2.60
2023-02-02T07:53:05.633Z,1.98
2023-02-02T07:55:33.040Z,2.85
2023-02-02T07:58:01.649Z,1.98
2023-02-02T08:00:29.609Z,2.15
2023-02-02T08:02:57.350Z,3.42
2023-02-02T08:05:25.181Z,2.33
2023-02-02T08:07:53.041Z,2.70
2023-02-02T08:10:20.499Z,2.40
2023-02-02T08:12:48.106Z,3.33
2023-02-02T08:15:15.765Z,3.03
2023-02-02T08:17:49.811Z,3.08
2023-02-02T08:20:17.769Z,2.20
2023-02-02T08:22:45.687Z,2.22
2023-02-02T08:25:13.202Z,2.50
2023-02-02T08:27:40.644Z,3.03
2023-02-02T08:30:08.892Z,2.83
2023-02-02T08:32:36.611Z,3.13
2023-02-02T08:35:04.414Z,2.20
2023-02-02T08:37:31.918Z,1.95
2023-02-02T08:39:59.787Z,2.72
2023-02-02T08:42:27.324Z,1.85
2023-02-02T08:46:02.185Z,2.58
2023-02-02T08:47:42.804Z,3.45
2023-02-02T08:50:11.133Z,3.90
2023-02-02T08:52:38.593Z,2.40
2023-02-02T08:55:07.137Z,3.10
2023-02-02T08:57:34.708Z,2.35
2023-02-02T09:00:03.647Z,2.30
2023-02-02T09:02:31.236Z,2.60
2023-02-02T09:04:58.720Z,2.33
2023-02-02T09:07:26.270Z,2.65
2023-02-02T09:09:55.762Z,2.63
2023-02-02T09:12:23.207Z,2.80
2023-02-02T09:14:50.605Z,2.10
2023-02-02T09:17:18.110Z,3.35
2023-02-02T09:19:45.768Z,2.75
2023-02-02T09:22:13.241Z,2.13
2023-02-02T09:24:40.622Z,2.65
2023-02-02T09:27:08.066Z,2.45
2023-02-02T09:29:35.745Z,2.78
2023-02-02T09:32:03.481Z,2.50
2023-02-02T09:34:31.154Z,2.47
2023-02-02T09:36:58.604Z,2.25
2023-02-02T09:39:26.152Z,2.03
2023-02-02T09:42:09.506Z,2.35
2023-02-02T09:44:52.100Z,2.05
2023-02-02T09:47:37.566Z,1.90
2023-02-02T09:50:16.939Z,2.40
2023-02-02T09:52:53.335Z,2.03
2023-02-02T09:55:30.640Z,1.90
2023-02-02T09:58:24.527Z,2.13
2023-02-02T10:01:24.877Z,2.72
2023-02-02T10:04:07.744Z,1.98
2023-02-02T10:06:48.175Z,2.60
2023-02-02T10:09:43.644Z,2.05
2023-02-02T10:12:47.381Z,1.95
2023-02-02T10:16:01.595Z,2.45
2023-02-02T10:18:53.608Z,1.95
2023-02-02T10:21:33.411Z,1.90
2023-02-02T10:24:03.695Z,1.88
2023-02-02T10:26:42.237Z,2.30
2023-02-02T10:29:18.985Z,2.13
2023-02-02T10:32:11.104Z,1.50
2023-02-02T10:34:42.927Z,1.90
2023-02-02T10:37:20.595Z,2.17
2023-02-02T10:40:14.840Z,1.55
2023-02-02T10:43:48.425Z,1.83
2023-02-02T10:46:46.116Z,1.77
2023-02-02T10:49:39.981Z,1.95
2023-02-02T10:52:11.094Z,2.10
2023-02-02T10:54:57.285Z,1.40
2023-02-02T10:57:39.739Z,2.17
2023-02-02T11:00:15.267Z,1.65
2023-02-02T11:02:43.325Z,1.67
2023-02-02T11:05:49.826Z,1.80
2023-02-02T11:08:27.931Z,2.05
2023-02-02T11:10:58.354Z,2.53
2023-02-02T11:13:33.940Z,1.95
2023-02-02T11:16:17.331Z,2.35
2023-02-02T11:18:45.989Z,2.35
2023-02-02T11:21:22.465Z,1.75
2023-02-02T11:24:24.605Z,2.00
2023-02-02T11:27:07.738Z,1.90
2023-02-02T11:29:44.686Z,2.25
2023-02-02T11:32:25.272Z,1.60
2023-02-02T11:35:08.196Z,1.88
2023-02-02T11:37:52.207Z,1.48
2023-02-02T11:40:27.310Z,1.52
2023-02-02T11:43:01.353Z,1.27
2023-02-02T11:45:42.080Z,1.40
2023-02-02T11:48:19.609Z,1.73
2023-02-02T11:50:53.856Z,1.65
2023-02-02T11:53:41.414Z,1.58
2023-02-02T11:56:18.518Z,1.50
2023-02-02T11:58:51.141Z,1.80
2023-02-02T12:01:28.043Z,1.90
2023-02-02T12:03:58.146Z,1.85
2023-02-02T12:06:33.590Z,1.53
2023-02-02T12:09:09.439Z,1.40
2023-02-02T12:11:58.422Z,1.75
2023-02-02T12:14:31.899Z,1.58
2023-02-02T12:17:14.592Z,1.90
2023-02-02T12:20:00.982Z,1.65
2023-02-02T12:22:58.519Z,1.95
2023-02-02T12:25:47.103Z,1.75
2023-02-02T12:28:42.059Z,2.00
2023-02-02T12:31:34.187Z,2.63
2023-02-02T12:34:09.554Z,2.00
2023-02-02T12:37:03.323Z,1.88
2023-02-02T12:39:43.993Z,1.90
2023-02-02T12:42:33.065Z,1.75
2023-02-02T12:45:25.251Z,2.17
2023-02-02T12:48:01.546Z,2.03
2023-02-02T12:50:37.300Z,2.72
2023-02-02T12:53:13.945Z,3.28
2023-02-02T12:55:57.183Z,1.85
2023-02-02T12:58:49.797Z,2.35
2023-02-02T13:01:24.019Z,1.90
2023-02-02T13:04:07.090Z,2.22
2023-02-02T13:07:22.499Z,1.70
2023-02-02T13:10:01.800Z,1.83
2023-02-02T13:12:34.647Z,1.90
2023-02-02T13:15:08.701Z,1.73
2023-02-02T13:17:41.744Z,2.15
2023-02-02T13:20:25.837Z,1.90
2023-02-02T13:22:57.254Z,1.50
2023-02-02T13:25:31.594Z,1.85
2023-02-02T13:28:00.642Z,1.73
2023-02-02T13:30:31.653Z,1.67
2023-02-02T13:33:03.448Z,1.70
2023-02-02T13:35:57.995Z,2.10
2023-02-02T13:38:30.372Z,1.52
2023-02-02T13:41:03.294Z,1.67
2023-02-02T13:43:39.890Z,1.75
2023-02-02T13:46:33.352Z,1.30
2023-02-02T13:49:30.151Z,1.63
2023-02-02T13:52:25.916Z,1.35
2023-02-02T13:55:39.167Z,1.10
2023-02-02T13:58:41.621Z,1.00
2023-02-02T14:01:12.347Z,1.08
2023-02-02T14:03:54.078Z,1.20
2023-02-02T14:06:24.412Z,1.15
2023-02-02T14:08:55.267Z,1.30
2023-02-02T14:11:28.169Z,1.00
2023-02-02T14:14:35.382Z,1.20
2023-02-02T14:17:28.637Z,1.20
2023-02-02T14:20:01.253Z,1.40
2023-02-02T14:22:48.079Z,1.25
2023-02-02T14:25:33.450Z,1.52
2023-02-02T14:28:03.008Z,1.30
2023-02-02T14:30:38.729Z,1.33
2023-02-02T14:33:21.270Z,1.45
2023-02-02T14:35:48.663Z,1.27
2023-02-02T14:38:30.717Z,1.35
2023-02-02T14:41:39.227Z,1.38
2023-02-02T14:44:06.751Z,1.25
2023-02-02T14:46:38.270Z,1.70
2023-02-02T14:49:10.438Z,1.50
2023-02-02T14:51:51.447Z,1.73
2023-02-02T14:56:54.347Z,1.40
2023-02-02T14:59:45.291Z,1.17
2023-02-02T15:02:12.631Z,1.48
2023-02-02T15:04:40.104Z,1.40
2023-02-02T15:07:31.010Z,1.45
2023-02-02T15:09:58.524Z,1.40
2023-02-02T15:12:29.927Z,1.23
2023-02-02T15:15:29.646Z,1.33
2023-02-02T15:17:58.016Z,1.65
2023-02-02T15:20:29.701Z,1.50
2023-02-02T15:23:08.139Z,1.35
2023-02-02T15:25:53.748Z,1.38
2023-02-02T15:28:46.000Z,1.00
2023-02-02T15:31:39.521Z,1.30
2023-02-02T15:34:42.629Z,1.00
2023-02-02T15:37:15.962Z,0.85
2023-02-02T15:39:48.666Z,0.95
2023-02-02T15:42:42.232Z,0.85
2023-02-02T15:45:28.230Z,1.27
2023-02-02T15:47:58.083Z,0.90
2023-02-02T15:50:26.925Z,1.10
2023-02-02T15:52:55.231Z,1.20
2023-02-02T15:55:29.799Z,1.25
2023-02-02T15:57:57.358Z,1.05
2023-02-02T16:00:28.492Z,1.70
2023-02-02T16:03:03.229Z,1.33
2023-02-02T16:05:36.481Z,1.70
2023-02-02T16:08:13.837Z,1.70
2023-02-02T16:10:41.420Z,1.90
2023-02-02T16:13:27.588Z,2.40
2023-02-02T16:16:00.651Z,1.90
2023-02-02T16:18:29.303Z,1.80
2023-02-02T16:20:59.529Z,1.80
2023-02-02T16:23:33.168Z,1.50
2023-02-02T16:26:04.896Z,1.58
2023-02-02T16:28:32.857Z,1.90
2023-02-02T16:31:02.331Z,2.03
2023-02-02T16:33:44.657Z,1.60
2023-02-02T16:36:25.097Z,2.55
2023-02-02T16:38:55.105Z,1.75
2023-02-02T16:41:34.378Z,1.77
2023-02-02T16:44:42.808Z,1.70
2023-02-02T16:47:31.801Z,1.40
2023-02-02T16:50:08.578Z,1.90
2023-02-02T16:52:59.862Z,1.60
2023-02-02T16:58:20.718Z,1.10
2023-02-02T17:01:16.675Z,1.40
2023-02-02T17:03:55.108Z,1.00
2023-02-02T17:06:35.804Z,1.60
2023-02-02T17:09:37.485Z,1.30
2023-02-02T17:12:34.816Z,1.48
2023-02-02T17:15:28.721Z,1.38
2023-02-02T17:17:56.832Z,1.60
2023-02-02T17:20:24.896Z,1.40
2023-02-02T17:23:00.830Z,1.42
2023-02-02T17:25:42.749Z,1.80
2023-02-02T17:28:13.063Z,2.10
2023-02-02T17:30:45.753Z,1.50
2023-02-02T17:33:15.708Z,1.48
2023-02-02T17:35:54.108Z,1.55
2023-02-02T17:38:24.292Z,1.20
2023-02-02T17:40:52.772Z,1.40
2023-02-02T17:43:20.214Z,1.40
2023-02-02T17:45:47.933Z,1.50
2023-02-02T17:48:15.529Z,1.40
2023-02-02T17:50:43.749Z,1.63
2023-02-02T17:53:13.267Z,1.42
2023-02-02T17:55:42.624Z,1.20
2023-02-02T17:58:13.081Z,1.00
2023-02-02T18:00:41.288Z,0.90
2023-02-02T18:03:27.667Z,1.45
2023-02-02T18:05:57.540Z,1.20
2023-02-02T18:08:25.072Z,1.10
2023-02-02T18:10:52.491Z,1.10
2023-02-02T18:13:21.815Z,1.40
2023-02-02T18:15:50.829Z,1.27
2023-02-02T18:18:18.516Z,1.25
2023-02-02T18:20:49.507Z,0.90
2023-02-02T18:25:46.343Z,1.10
2023-02-02T18:28:17.324Z,0.95
2023-02-02T18:30:47.259Z,0.88
2023-02-02T18:33:17.782Z,1.10
2023-02-02T18:35:46.301Z,1.48
2023-02-02T18:38:14.718Z,0.80
2023-02-02T18:40:42.544Z,0.95
2023-02-02T18:43:10.414Z,1.38
2023-02-02T18:45:38.018Z,0.98
2023-02-02T18:48:05.631Z,1.35
2023-02-02T18:50:32.996Z,1.10
2023-02-02T18:53:00.476Z,0.80
2023-02-02T18:55:28.293Z,1.10
2023-02-02T18:57:56.264Z,1.02
2023-02-02T19:00:24.142Z,1.10
2023-02-02T19:02:51.839Z,1.02
2023-02-02T19:05:38.309Z,1.00
2023-02-02T19:08:06.131Z,1.02
2023-02-02T19:10:33.845Z,0.98
2023-02-02T19:13:19.431Z,0.80
2023-02-02T19:15:49.089Z,1.20
2023-02-02T19:18:21.991Z,1.30
2023-02-02T19:20:51.018Z,1.42
2023-02-02T19:23:20.036Z,1.30
2023-02-02T19:25:51.596Z,1.50
2023-02-02T19:28:28.274Z,1.27
2023-02-02T19:31:01.309Z,1.08
2023-02-02T19:33:42.669Z,1.40
2023-02-02T19:36:21.827Z,1.50
2023-02-02T19:38:58.769Z,1.83
2023-02-02T19:41:29.045Z,2.15
2023-02-02T19:44:01.251Z,2.30
2023-02-02T19:46:30.794Z,1.60
2023-02-02T19:49:12.236Z,1.05
2023-02-02T19:51:43.751Z,1.30
2023-02-02T19:54:34.583Z,1.58
2023-02-02T19:57:15.420Z,1.45
2023-02-02T19:59:45.320Z,1.10
2023-02-02T20:02:34.335Z,1.77
2023-02-02T20:05:47.846Z,1.40
2023-02-02T20:08:26.527Z,1.67
2023-02-02T20:11:23.654Z,1.30
2023-02-02T20:13:51.808Z,1.63
2023-02-02T20:16:21.778Z,1.73
2023-02-02T20:18:56.954Z,1.50
2023-02-02T20:21:45.117Z,2.65
2023-02-02T20:24:40.275Z,1.45
2023-02-02T20:27:18.478Z,1.30
2023-02-02T20:29:48.101Z,1.10
2023-02-02T20:32:21.822Z,1.17
2023-02-02T20:34:50.998Z,1.33
2023-02-02T20:37:25.203Z,1.42
2023-02-02T20:40:01.133Z,1.42
2023-02-02T20:42:29.043Z,1.35
2023-02-02T20:44:58.214Z,1.17
2023-02-02T20:47:25.755Z,1.42
2023-02-02T20:49:53.230Z,1.77
2023-02-02T20:52:24.040Z,1.50
2023-02-02T20:57:19.409Z,1.48
2023-02-02T20:59:46.782Z,1.00
2023-02-02T21:02:19.036Z,0.90
2023-02-02T21:04:51.179Z,1.10
2023-02-02T21:07:21.351Z,1.00
2023-02-02T21:09:50.600Z,1.23
2023-02-02T21:12:18.458Z,1.98
2023-02-02T21:14:46.110Z,1.13
2023-02-02T21:17:15.634Z,1.30
2023-02-02T21:19:43.812Z,1.30
2023-02-02T21:22:12.176Z,1.30
2023-02-02T21:24:40.361Z,1.25
2023-02-02T21:27:08.896Z,1.50
2023-02-02T21:29:36.409Z,1.38
2023-02-02T21:32:04.143Z,1.10
2023-02-02T21:34:32.164Z,1.00
2023-02-02T21:36:59.663Z,1.20
2023-02-02T21:39:37.434Z,1.10
2023-02-02T21:42:07.899Z,1.10
2023-02-02T21:44:36.353Z,1.30
2023-02-02T21:47:19.302Z,1.15
2023-02-02T21:49:46.703Z,1.63
2023-02-02T21:52:18.668Z,1.23
2023-02-02T21:54:47.107Z,1.30
2023-02-02T21:57:34.563Z,1.40
2023-02-02T22:00:17.070Z,1.45
2023-02-02T22:02:48.856Z,1.90
2023-02-02T22:05:26.201Z,1.70
2023-02-02T22:07:57.757Z,1.48
2023-02-02T22:10:38.814Z,1.65
2023-02-02T22:15:59.687Z,1.48
2023-02-02T22:18:29.239Z,2.42
2023-02-02T22:20:56.894Z,2.58
2023-02-02T22:23:28.236Z,1.60
2023-02-02T22:25:57.939Z,2.20
2023-02-02T22:28:29.809Z,2.05
2023-02-02T22:30:58.741Z,2.33
2023-02-02T22:33:26.684Z,4.32
2023-02-02T22:35:54.378Z,2.95
2023-02-02T22:38:23.945Z,1.75
2023-02-02T22:40:52.782Z,1.83
2023-02-02T22:43:21.461Z,1.50
2023-02-02T22:45:49.193Z,2.00
2023-02-02T22:48:17.090Z,1.00
2023-02-02T22:50:44.887Z,1.30
2023-02-02T22:53:13.995Z,1.10
2023-02-02T22:55:41.458Z,0.98
2023-02-02T22:58:09.011Z,1.15
2023-02-02T23:00:37.667Z,1.42
2023-02-02T23:03:05.602Z,1.25
2023-02-02T23:05:33.561Z,1.20
2023-02-02T23:08:01.174Z,1.10
2023-02-02T23:10:34.938Z,1.65
2023-02-02T23:13:04.236Z,1.10
2023-02-02T23:15:32.187Z,1.05
2023-02-02T23:17:59.930Z,1.40
2023-02-02T23:20:28.041Z,1.10
2023-02-02T23:22:55.743Z,1.30
2023-02-02T23:25:23.578Z,1.02
2023-02-02T23:27:51.473Z,1.17
2023-02-02T23:30:22.050Z,1.30
2023-02-02T23:32:50.147Z,1.05
2023-02-02T23:35:18.118Z,1.63
2023-02-02T23:37:45.900Z,1.45
2023-02-02T23:40:13.930Z,1.13
2023-02-02T23:42:41.641Z,1.10
2023-02-02T23:45:10.814Z,1.30
2023-02-02T23:47:38.423Z,1.20
2023-02-02T23:50:09.260Z,1.65
2023-02-02T23:52:37.573Z,1.02
2023-02-02T23:55:05.826Z,1.25
2023-02-02T23:57:33.874Z,1.30
